createdAt,value
2022-10-05T00:00:30.867Z,12.75
2022-10-05T00:02:57.827Z,12.77
2022-10-05T00:05:32.129Z,14.85
2022-10-05T00:08:16.641Z,10.97
2022-10-05T00:10:46.696Z,9.27
2022-10-05T00:13:20.624Z,12.07
2022-10-05T00:15:48.067Z,12.13
2022-10-05T00:18:22.164Z,11.45
2022-10-05T00:20:49.568Z,8.93
2022-10-05T00:23:22.024Z,13.43
2022-10-05T00:25:51.212Z,10.55
2022-10-05T00:28:23.181Z,11.43
2022-10-05T00:30:49.784Z,8.10
2022-10-05T00:33:16.386Z,10.93
2022-10-05T00:35:42.994Z,13.23
2022-10-05T00:38:09.615Z,10.82
2022-10-05T00:41:11.504Z,10.55
2022-10-05T00:44:01.475Z,13.38
2022-10-05T00:46:44.907Z,13.25
2022-10-05T00:49:33.348Z,12.63
2022-10-05T00:52:07.185Z,9.75
2022-10-05T00:54:49.306Z,12.23
2022-10-05T00:57:31.077Z,12.50
2022-10-05T01:00:09.758Z,10.13
2022-10-05T01:02:50.946Z,11.77
2022-10-05T01:05:29.703Z,13.35
2022-10-05T01:08:32.321Z,10.48
2022-10-05T01:11:07.456Z,13.60
2022-10-05T01:13:46.086Z,17.52
2022-10-05T01:16:41.183Z,9.55
2022-10-05T01:19:46.002Z,11.73
2022-10-05T01:22:16.891Z,10.93
2022-10-05T01:24:48.263Z,11.65
2022-10-05T01:28:10.367Z,13.70
2022-10-05T01:31:14.666Z,12.48
2022-10-05T01:33:50.746Z,11.50
2022-10-05T01:36:40.678Z,11.85
2022-10-05T01:39:36.276Z,9.70
2022-10-05T01:42:09.051Z,12.60
2022-10-05T01:44:47.268Z,11.75
2022-10-05T01:47:42.599Z,12.68
2022-10-05T01:50:45.448Z,13.82
2022-10-05T01:53:20.069Z,15.70
2022-10-05T01:56:09.144Z,19.33
2022-10-05T01:58:48.212Z,17.20
2022-10-05T02:01:38.947Z,12.60
2022-10-05T02:05:00.464Z,12.57
2022-10-05T02:07:27.674Z,12.70
2022-10-05T02:10:03.174Z,16.70
2022-10-05T02:12:33.034Z,11.95
2022-10-05T02:15:12.782Z,19.15
2022-10-05T02:17:52.943Z,12.05
2022-10-05T02:20:25.847Z,11.20
2022-10-05T02:23:02.192Z,12.40
2022-10-05T02:25:32.981Z,15.25
2022-10-05T02:28:08.170Z,13.02
2022-10-05T02:30:40.287Z,11.07
2022-10-05T02:33:22.017Z,13.70
2022-10-05T02:35:48.669Z,12.55
2022-10-05T02:38:30.994Z,12.23
2022-10-05T02:41:19.578Z,14.45
2022-10-05T02:44:05.024Z,12.23
2022-10-05T02:46:43.182Z,12.15
2022-10-05T02:49:13.676Z,9.50
2022-10-05T02:51:52.567Z,11.90
2022-10-05T02:54:34.689Z,9.85
2022-10-05T02:57:08.601Z,10.82
2022-10-05T02:59:44.297Z,10.60
2022-10-05T03:02:26.321Z,15.63
2022-10-05T03:05:05.508Z,10.00
2022-10-05T03:07:56.621Z,12.15
2022-10-05T03:11:00.773Z,12.93
2022-10-05T03:13:53.976Z,11.75
2022-10-05T03:16:30.885Z,13.82
2022-10-05T03:19:22.226Z,13.55
2022-10-05T03:22:01.101Z,13.20
2022-10-05T03:24:52.907Z,13.27
2022-10-05T03:27:48.802Z,10.82
2022-10-05T03:30:19.863Z,10.77
2022-10-05T03:32:55.696Z,9.48
2022-10-05T03:35:43.737Z,12.93
2022-10-05T03:38:26.655Z,10.25
2022-10-05T03:41:01.385Z,12.98
2022-10-05T03:43:55.584Z,12.25
2022-10-05T03:46:48.748Z,9.95
2022-10-05T03:49:42.603Z,12.70
2022-10-05T03:52:15.561Z,13.15
2022-10-05T03:54:49.192Z,10.43
2022-10-05T03:57:27.535Z,11.00
2022-10-05T03:59:55.567Z,10.38
2022-10-05T04:02:40.860Z,13.20
2022-10-05T04:05:13.845Z,11.68
2022-10-05T04:07:59.715Z,12.15
2022-10-05T04:10:34.355Z,10.07
2022-10-05T04:13:13.087Z,12.45
2022-10-05T04:15:48.371Z,12.18
2022-10-05T04:18:24.779Z,12.18
2022-10-05T04:20:56.534Z,12.63
2022-10-05T04:23:32.772Z,10.73
2022-10-05T04:26:08.064Z,9.38
2022-10-05T04:28:47.995Z,10.18
2022-10-05T04:31:45.324Z,15.65
2022-10-05T04:34:42.412Z,12.43
2022-10-05T04:37:19.390Z,12.50
2022-10-05T04:40:12.777Z,10.63
2022-10-05T04:42:57.708Z,9.98
2022-10-05T04:45:29.085Z,11.32
2022-10-05T04:48:33.378Z,10.35
2022-10-05T04:51:20.938Z,11.27
2022-10-05T04:53:53.707Z,10.95
2022-10-05T04:56:23.456Z,12.38
2022-10-05T04:59:01.995Z,13.95
2022-10-05T05:01:37.765Z,11.02
2022-10-05T05:04:26.317Z,13.07
2022-10-05T05:07:17.079Z,10.15
2022-10-05T05:10:05.741Z,15.88
2022-10-05T05:12:41.573Z,16.08
2022-10-05T05:15:21.924Z,11.63
2022-10-05T05:17:55.153Z,10.95
2022-10-05T05:20:39.243Z,10.40
2022-10-05T05:23:29.137Z,9.15
2022-10-05T05:26:17.364Z,10.75
2022-10-05T05:29:08.754Z,12.27
2022-10-05T05:32:25.308Z,11.27
2022-10-05T05:35:26.541Z,10.65
2022-10-05T05:37:54.594Z,9.02
2022-10-05T05:40:30.608Z,14.07
2022-10-05T05:43:21.665Z,12.43
2022-10-05T05:45:51.680Z,11.52
2022-10-05T05:48:24.594Z,9.23
2022-10-05T05:51:05.670Z,8.43
2022-10-05T05:53:42.553Z,9.88
2022-10-05T05:56:19.161Z,8.57
2022-10-05T05:58:52.795Z,12.70
2022-10-05T06:01:33.272Z,7.28
2022-10-05T06:04:11.157Z,9.15
2022-10-05T06:06:41.277Z,8.07
2022-10-05T06:09:34.539Z,8.32
2022-10-05T06:14:50.096Z,9.30
2022-10-05T06:17:43.373Z,11.10
2022-10-05T06:20:20.109Z,10.77
2022-10-05T06:22:47.387Z,8.48
2022-10-05T06:25:15.763Z,13.60
2022-10-05T06:28:13.142Z,9.63
2022-10-05T06:31:04.423Z,9.20
2022-10-05T06:33:47.500Z,12.43
2022-10-05T06:36:40.897Z,10.77
2022-10-05T06:39:11.056Z,8.82
2022-10-05T06:42:17.164Z,8.32
2022-10-05T06:45:15.298Z,8.70
2022-10-05T06:48:11.870Z,10.02
2022-10-05T06:51:05.642Z,11.75
2022-10-05T06:53:49.046Z,9.63
2022-10-05T06:56:21.148Z,11.05
2022-10-05T06:59:06.040Z,10.40
2022-10-05T07:01:57.269Z,9.27
2022-10-05T07:04:37.237Z,13.10
2022-10-05T07:07:29.712Z,10.73
2022-10-05T07:10:12.604Z,8.65
2022-10-05T07:12:59.034Z,9.98
2022-10-05T07:16:12.643Z,9.90
2022-10-05T07:19:14.950Z,7.40
2022-10-05T07:21:52.587Z,7.22
2022-10-05T07:24:42.009Z,9.25
2022-10-05T07:27:18.511Z,7.88
2022-10-05T07:30:10.263Z,11.48
2022-10-05T07:32:38.852Z,6.80
2022-10-05T07:36:05.675Z,11.15
2022-10-05T07:38:47.521Z,7.25
2022-10-05T07:41:14.240Z,11.40
2022-10-05T07:44:01.933Z,9.48
2022-10-05T07:46:46.557Z,12.75
2022-10-05T07:49:47.725Z,10.88
2022-10-05T07:52:23.631Z,9.25
2022-10-05T07:55:03.998Z,6.90
2022-10-05T07:58:00.886Z,13.07
2022-10-05T08:00:43.148Z,9.07
2022-10-05T08:03:15.539Z,7.90
2022-10-05T08:05:42.500Z,7.63
2022-10-05T08:08:23.416Z,10.23
2022-10-05T08:10:59.864Z,11.15
2022-10-05T08:13:32.523Z,7.43
2022-10-05T08:16:02.251Z,7.35
2022-10-05T08:18:56.790Z,6.55
2022-10-05T08:21:30.510Z,6.93
2022-10-05T08:24:06.435Z,6.88
2022-10-05T08:26:39.189Z,8.85
2022-10-05T08:29:15.123Z,8.20
2022-10-05T08:31:44.512Z,8.30
2022-10-05T08:34:45.833Z,11.45
2022-10-05T08:37:27.279Z,8.95
2022-10-05T08:40:21.349Z,8.60
2022-10-05T08:42:47.880Z,6.57
2022-10-05T08:45:20.335Z,6.78
2022-10-05T08:47:55.965Z,7.00
2022-10-05T08:50:35.831Z,6.38
2022-10-05T08:53:12.340Z,12.18
2022-10-05T08:55:57.508Z,7.60
2022-10-05T08:59:01.526Z,5.18
2022-10-05T09:01:59.210Z,6.20
2022-10-05T09:04:43.052Z,5.70
2022-10-05T09:08:03.513Z,4.75
2022-10-05T09:10:48.807Z,5.43
2022-10-05T09:13:36.807Z,8.25
2022-10-05T09:16:25.273Z,5.53
2022-10-05T09:18:55.085Z,7.45
2022-10-05T09:21:35.036Z,4.35
2022-10-05T09:24:23.038Z,9.93
2022-10-05T09:27:13.650Z,5.05
2022-10-05T09:29:52.122Z,7.97
2022-10-05T09:32:30.963Z,7.50
2022-10-05T09:34:57.756Z,5.15
2022-10-05T09:37:55.363Z,9.82
2022-10-05T09:40:34.158Z,5.18
2022-10-05T09:43:15.609Z,7.25
2022-10-05T09:46:15.606Z,5.70
2022-10-05T09:49:08.208Z,8.00
2022-10-05T09:51:56.200Z,7.00
2022-10-05T09:55:02.890Z,8.32
2022-10-05T09:57:59.239Z,4.25
2022-10-05T10:00:50.178Z,4.38
2022-10-05T10:03:28.187Z,7.05
2022-10-05T10:06:15.167Z,9.00
2022-10-05T10:09:06.278Z,7.68
2022-10-05T10:11:54.557Z,5.30
2022-10-05T10:14:52.389Z,5.82
2022-10-05T10:17:24.174Z,7.25
2022-10-05T10:20:05.923Z,6.20
2022-10-05T10:23:20.535Z,5.28
2022-10-05T10:25:56.264Z,3.75
2022-10-05T10:28:46.135Z,5.38
2022-10-05T10:31:15.709Z,4.85
2022-10-05T10:34:18.978Z,11.50
2022-10-05T10:37:20.247Z,8.15
2022-10-05T10:40:14.819Z,4.85
2022-10-05T10:43:12.604Z,11.75
2022-10-05T10:45:45.449Z,8.45
2022-10-05T10:48:30.345Z,3.15
2022-10-05T10:51:06.156Z,6.65
2022-10-05T10:53:41.720Z,5.68
2022-10-05T10:56:36.164Z,4.53
2022-10-05T10:59:26.606Z,4.05
2022-10-05T11:02:36.480Z,7.80
2022-10-05T11:05:37.161Z,5.18
2022-10-05T11:08:37.323Z,3.30
2022-10-05T11:11:26.988Z,2.78
2022-10-05T11:14:22.374Z,3.85
2022-10-05T11:17:10.961Z,6.88
2022-10-05T11:20:11.441Z,3.15
2022-10-05T11:23:34.249Z,3.75
2022-10-05T11:30:20.044Z,4.60
2022-10-05T11:33:18.165Z,3.08
2022-10-05T11:36:08.873Z,5.22
2022-10-05T11:39:04.117Z,5.70
2022-10-05T11:41:44.234Z,7.43
2022-10-05T11:44:23.148Z,3.25
2022-10-05T11:47:00.340Z,4.85
2022-10-05T11:49:48.987Z,5.18
2022-10-05T11:52:27.554Z,4.32
2022-10-05T11:55:11.403Z,4.72
2022-10-05T11:57:57.617Z,3.88
2022-10-05T12:03:19.192Z,4.93
2022-10-05T12:05:49.044Z,4.28
2022-10-05T12:08:31.696Z,6.80
2022-10-05T12:11:25.542Z,4.47
2022-10-05T12:14:02.546Z,4.03
2022-10-05T12:16:37.201Z,5.22
2022-10-05T12:19:13.535Z,5.63
2022-10-05T12:21:52.288Z,3.40
2022-10-05T12:24:42.237Z,2.85
2022-10-05T12:27:15.853Z,3.67
2022-10-05T12:30:01.616Z,3.10
2022-10-05T12:32:36.192Z,3.53
2022-10-05T12:35:30.038Z,2.72
2022-10-05T12:38:35.119Z,5.57
2022-10-05T12:41:17.864Z,4.05
2022-10-05T12:44:06.142Z,4.95
2022-10-05T12:47:11.131Z,2.85
2022-10-05T12:49:56.259Z,4.43
2022-10-05T12:52:56.680Z,3.97
2022-10-05T12:55:42.259Z,2.80
2022-10-05T12:58:45.720Z,3.05
2022-10-05T13:01:48.955Z,6.68
2022-10-05T13:04:39.506Z,4.43
2022-10-05T13:07:13.317Z,3.75
2022-10-05T13:09:55.561Z,3.80
2022-10-05T13:12:28.479Z,3.00
2022-10-05T13:15:14.005Z,2.45
2022-10-05T13:18:05.010Z,2.97
2022-10-05T13:20:36.756Z,4.47
2022-10-05T13:23:13.115Z,2.30
2022-10-05T13:25:51.691Z,3.38
2022-10-05T13:28:21.708Z,2.58
2022-10-05T13:30:57.936Z,5.22
2022-10-05T13:33:40.527Z,3.67
2022-10-05T13:36:47.512Z,3.00
2022-10-05T13:39:37.116Z,5.00
2022-10-05T13:42:15.389Z,5.45
2022-10-05T13:44:54.787Z,8.40
2022-10-05T13:47:35.897Z,2.58
2022-10-05T13:50:07.547Z,3.83
2022-10-05T13:52:42.791Z,5.25
2022-10-05T13:55:21.584Z,3.40
2022-10-05T13:58:14.891Z,2.22
2022-10-05T14:00:50.191Z,5.65
2022-10-05T14:03:35.073Z,5.72
2022-10-05T14:06:08.090Z,3.47
2022-10-05T14:08:36.333Z,2.30
2022-10-05T14:11:28.786Z,5.53
2022-10-05T14:14:10.710Z,6.13
2022-10-05T14:17:00.485Z,3.42
2022-10-05T14:19:31.447Z,4.78
2022-10-05T14:22:02.161Z,7.65
2022-10-05T14:24:49.442Z,2.50
2022-10-05T14:27:26.281Z,2.42
2022-10-05T14:29:59.633Z,6.07
2022-10-05T14:32:31.569Z,2.53
2022-10-05T14:35:01.300Z,3.50
2022-10-05T14:37:56.145Z,4.75
2022-10-05T14:40:22.851Z,2.22
2022-10-05T14:42:49.937Z,2.13
2022-10-05T14:45:19.789Z,5.95
2022-10-05T14:47:53.140Z,7.38
2022-10-05T14:50:26.039Z,12.35
2022-10-05T14:53:10.991Z,1.65
2022-10-05T14:55:41.400Z,5.43
2022-10-05T14:58:35.044Z,3.63
2022-10-05T15:01:27.003Z,6.03
2022-10-05T15:04:36.942Z,6.60
2022-10-05T15:07:15.772Z,5.10
2022-10-05T15:10:22.493Z,4.88
2022-10-05T15:12:49.123Z,4.07
2022-10-05T15:15:25.392Z,4.13
2022-10-05T15:17:58.229Z,4.82
2022-10-05T15:20:36.000Z,4.00
2022-10-05T15:23:02.734Z,5.00
2022-10-05T15:25:37.190Z,2.88
2022-10-05T15:28:16.622Z,5.32
2022-10-05T15:30:58.910Z,2.13
2022-10-05T15:33:34.436Z,6.65
2022-10-05T15:36:32.236Z,5.88
2022-10-05T15:39:03.772Z,5.43
2022-10-05T15:41:36.498Z,3.47
2022-10-05T15:44:08.961Z,3.50
2022-10-05T15:46:58.287Z,5.82
2022-10-05T15:50:08.426Z,5.50
2022-10-05T15:53:28.597Z,2.42
2022-10-05T15:56:24.915Z,7.68
2022-10-05T15:58:58.148Z,2.95
2022-10-05T16:01:40.358Z,6.95
2022-10-05T16:04:20.844Z,4.90
2022-10-05T16:07:15.284Z,4.22
2022-10-05T16:10:04.194Z,2.63
2022-10-05T16:12:46.796Z,7.50
2022-10-05T16:15:43.768Z,4.82
2022-10-05T16:18:39.544Z,7.78
2022-10-05T16:23:44.519Z,6.50
2022-10-05T16:26:14.663Z,4.25
2022-10-05T16:28:53.115Z,3.92
2022-10-05T16:31:31.038Z,5.35
2022-10-05T16:34:06.549Z,3.67
2022-10-05T16:36:46.690Z,3.97
2022-10-05T16:39:41.399Z,2.28
2022-10-05T16:42:42.141Z,4.22
2022-10-05T16:45:14.420Z,4.68
2022-10-05T16:47:59.837Z,10.02
2022-10-05T16:53:27.618Z,10.48
2022-10-05T16:56:01.789Z,8.40
2022-10-05T16:58:49.903Z,7.70
2022-10-05T17:01:42.735Z,7.55
2022-10-05T17:04:22.047Z,11.25
2022-10-05T17:07:06.062Z,7.57
2022-10-05T17:09:43.031Z,9.20
2022-10-05T17:12:31.117Z,6.55
2022-10-05T17:15:29.199Z,6.90
2022-10-05T17:18:01.991Z,4.72
2022-10-05T17:20:42.763Z,4.28
2022-10-05T17:23:43.867Z,5.00
2022-10-05T17:26:22.635Z,4.57
2022-10-05T17:28:52.397Z,5.28
2022-10-05T17:31:21.647Z,8.05
2022-10-05T17:34:23.054Z,4.82
2022-10-05T17:36:53.455Z,5.28
2022-10-05T17:39:46.923Z,3.47
2022-10-05T17:42:32.838Z,9.55
2022-10-05T17:45:20.807Z,13.43
2022-10-05T17:47:58.073Z,6.28
2022-10-05T17:51:04.183Z,5.40
2022-10-05T17:53:52.505Z,4.68
2022-10-05T17:56:20.792Z,7.45
2022-10-05T17:58:47.483Z,6.07
2022-10-05T18:01:30.317Z,5.20
2022-10-05T18:04:12.396Z,10.00
2022-10-05T18:06:59.881Z,5.18
2022-10-05T18:09:27.755Z,3.97
2022-10-05T18:12:11.012Z,6.63
2022-10-05T18:14:54.153Z,3.88
2022-10-05T18:17:51.236Z,4.68
2022-10-05T18:20:24.117Z,5.30
2022-10-05T18:22:53.379Z,4.50
2022-10-05T18:25:31.079Z,5.13
2022-10-05T18:28:22.287Z,5.68
2022-10-05T18:31:24.778Z,3.90
2022-10-05T18:34:13.261Z,4.20
2022-10-05T18:36:53.536Z,4.30
2022-10-05T18:39:51.087Z,4.60
2022-10-05T18:42:36.508Z,5.05
2022-10-05T18:47:57.142Z,5.53
2022-10-05T18:50:55.207Z,4.80
2022-10-05T18:53:59.728Z,4.75
2022-10-05T18:56:36.846Z,8.70
2022-10-05T18:59:25.385Z,4.22
2022-10-05T19:02:19.917Z,8.18
2022-10-05T19:05:48.784Z,3.28
2022-10-05T19:08:25.150Z,3.70
2022-10-05T19:10:52.010Z,6.20
2022-10-05T19:13:34.100Z,4.57
2022-10-05T19:16:06.705Z,3.17
2022-10-05T19:19:00.345Z,5.10
2022-10-05T19:21:58.093Z,4.63
2022-10-05T19:24:56.746Z,8.55
2022-10-05T19:27:33.002Z,3.60
2022-10-05T19:30:15.586Z,3.50
2022-10-05T19:33:07.658Z,5.80
2022-10-05T19:36:04.240Z,4.82
2022-10-05T19:39:08.477Z,5.90
2022-10-05T19:41:53.457Z,5.28
2022-10-05T19:44:29.964Z,4.65
2022-10-05T19:47:29.626Z,3.05
2022-10-05T19:49:56.187Z,4.22
2022-10-05T19:52:37.693Z,5.88
2022-10-05T19:55:12.896Z,5.15
2022-10-05T19:57:47.695Z,4.05
2022-10-05T20:00:26.554Z,4.22
2022-10-05T20:03:19.116Z,3.92
2022-10-05T20:05:45.836Z,9.13
2022-10-05T20:08:19.703Z,3.90
2022-10-05T20:11:04.740Z,6.10
2022-10-05T20:13:34.976Z,5.97
2022-10-05T20:16:36.502Z,7.60
2022-10-05T20:19:41.839Z,7.32
2022-10-05T20:22:34.355Z,5.03
2022-10-05T20:25:21.166Z,2.55
2022-10-05T20:27:50.065Z,5.75
2022-10-05T20:30:21.531Z,5.13
2022-10-05T20:32:52.646Z,6.00
2022-10-05T20:35:22.167Z,7.15
2022-10-05T20:37:49.979Z,7.28
2022-10-05T20:40:19.878Z,5.70
2022-10-05T20:42:47.367Z,2.55
2022-10-05T20:45:14.436Z,5.03
2022-10-05T20:47:42.109Z,3.65
2022-10-05T20:50:10.204Z,5.80
2022-10-05T20:52:37.719Z,4.45
2022-10-05T20:55:06.268Z,3.85
2022-10-05T20:57:41.707Z,3.92
2022-10-05T21:00:10.582Z,6.32
2022-10-05T21:02:50.131Z,4.90
2022-10-05T21:05:35.871Z,4.00
2022-10-05T21:08:02.567Z,2.67
2022-10-05T21:10:36.138Z,3.92
2022-10-05T21:13:29.607Z,2.85
2022-10-05T21:15:56.506Z,5.18
2022-10-05T21:18:23.240Z,7.35
2022-10-05T21:20:50.568Z,3.45
2022-10-05T21:23:27.675Z,5.63
2022-10-05T21:26:17.955Z,5.22
2022-10-05T21:29:00.442Z,10.63
2022-10-05T21:31:36.269Z,6.55
2022-10-05T21:34:07.549Z,8.32
2022-10-05T21:36:35.751Z,6.10
2022-10-05T21:39:02.972Z,9.35
2022-10-05T21:44:24.770Z,13.73
2022-10-05T21:47:13.499Z,5.72
2022-10-05T21:49:41.594Z,9.55
2022-10-05T21:52:20.983Z,10.23
2022-10-05T21:54:49.365Z,7.18
2022-10-05T21:57:16.249Z,9.88
2022-10-05T21:59:43.114Z,8.27
2022-10-05T22:02:09.729Z,7.22
2022-10-05T22:04:36.347Z,5.50
2022-10-05T22:07:10.096Z,5.15
2022-10-05T22:09:36.675Z,3.00
2022-10-05T22:12:03.398Z,3.33
2022-10-05T22:14:30.006Z,4.03
2022-10-05T22:16:56.637Z,3.28
2022-10-05T22:19:23.280Z,4.10
2022-10-05T22:21:49.946Z,6.63
2022-10-05T22:24:16.602Z,3.67
2022-10-05T22:26:44.980Z,3.30
2022-10-05T22:29:11.855Z,2.90
2022-10-05T22:31:39.144Z,4.60
2022-10-05T22:34:05.833Z,5.40
2022-10-05T22:36:34.793Z,5.22
2022-10-05T22:39:01.529Z,3.95
2022-10-05T22:41:28.396Z,3.58
2022-10-05T22:43:55.067Z,5.78
2022-10-05T22:46:21.710Z,3.45
2022-10-05T22:48:48.309Z,9.35
2022-10-05T22:51:14.962Z,7.85
2022-10-05T22:53:41.545Z,9.25
2022-10-05T22:56:10.220Z,8.65
2022-10-05T22:58:37.181Z,3.20
2022-10-05T23:01:08.952Z,5.47
2022-10-05T23:03:35.963Z,4.07
2022-10-05T23:06:05.083Z,2.13
2022-10-05T23:08:33.054Z,2.60
2022-10-05T23:11:03.852Z,2.05
2022-10-05T23:13:30.650Z,3.75
2022-10-05T23:15:57.269Z,2.95
2022-10-05T23:18:24.104Z,2.28
2022-10-05T23:20:57.353Z,3.45
2022-10-05T23:23:24.066Z,3.20
2022-10-05T23:25:50.639Z,2.03
2022-10-05T23:28:17.341Z,6.15
2022-10-05T23:30:44.257Z,7.50
2022-10-05T23:33:10.933Z,9.18
2022-10-05T23:35:37.495Z,13.82
2022-10-05T23:38:04.524Z,9.55
2022-10-05T23:40:31.240Z,5.25
2022-10-05T23:42:58.233Z,3.47
2022-10-05T23:45:24.833Z,3.38
2022-10-05T23:47:51.470Z,1.98
2022-10-05T23:50:18.402Z,5.45
2022-10-05T23:52:44.987Z,4.13
2022-10-05T23:55:11.587Z,3.65
2022-10-05T23:57:39.115Z,10.68
